Shubra el-Kheima, Egypt
Current Conditions -  °F | °C
As of 4:00 AM on Thursday 23 Oct 2014 (Local Time) from HECA Reporting Station
Haze Haze  
Wind Chill: 66°   Ceiling: Unl
Heat Index: 66°   Visibility: 2.5mi
Dew Point: 50°   Wind: 5mph
Humidity: 56%   Direction: 140°SE
Pressure: 29.94"   Gusts: NA
Location:  30.1°N, 31.25°E
Report Text: HECA 230200Z 14004KT 4000 HZ NSC 19/10 Q1014 NOSIG
Loading
Personal Weather Stations






























Interactive Weather Map
Tropical Storm Tracking
New forecast layout! Learn more

10-Day Weather Forecast

Advertisements
Track Severe Weather on mobile